createdAt,value
2018-04-07T00:00:10.383Z,99782.16
2018-04-07T00:02:38.765Z,99780.48
2018-04-07T00:05:09.881Z,99772.64
2018-04-07T00:07:38.280Z,99772.69
2018-04-07T00:12:42.788Z,99763.52
2018-04-07T00:15:11.383Z,99673.84
2018-04-07T00:17:39.845Z,99769.18
2018-04-07T00:20:11.046Z,99764.71
2018-04-07T00:22:39.187Z,99761.57
2018-04-07T00:25:11.947Z,99769.90
2018-04-07T00:27:40.334Z,99768.08
2018-04-07T00:30:09.686Z,99764.48
2018-04-07T00:32:38.048Z,99759.48
2018-04-07T00:35:10.967Z,99767.69
2018-04-07T00:37:39.370Z,99762.16
2018-04-07T00:40:11.415Z,99767.01
2018-04-07T00:42:39.567Z,99767.14
2018-04-07T00:45:11.929Z,99762.08
2018-04-07T00:47:40.114Z,99764.89
2018-04-07T00:50:11.235Z,99706.11
2018-04-07T00:52:58.624Z,99764.73
2018-04-07T00:55:27.020Z,99761.45
2018-04-07T00:57:55.168Z,99765.48
2018-04-07T01:00:23.554Z,99761.20
2018-04-07T01:02:51.976Z,99757.42
2018-04-07T01:05:20.358Z,99763.20
2018-04-07T01:07:48.738Z,99745.59
2018-04-07T01:10:17.113Z,99751.17
2018-04-07T01:12:44.952Z,99753.78
2018-04-07T01:15:13.154Z,99752.75
2018-04-07T01:17:41.566Z,99752.70
2018-04-07T01:20:15.697Z,99754.72
2018-04-07T01:22:44.081Z,99754.33
2018-04-07T01:25:12.462Z,99746.72
2018-04-07T01:27:40.835Z,99738.70
2018-04-07T01:30:11.583Z,99750.95
2018-04-07T01:32:39.972Z,99705.98
2018-04-07T01:35:11.213Z,99733.78
2018-04-07T01:37:39.578Z,99739.77
2018-04-07T01:40:12.566Z,99699.72
2018-04-07T01:42:40.712Z,99735.94
2018-04-07T01:45:11.744Z,99724.69
2018-04-07T01:47:40.125Z,99727.39
2018-04-07T01:50:12.146Z,99729.23
2018-04-07T01:52:40.510Z,99729.13
2018-04-07T01:55:11.334Z,99725.11
2018-04-07T01:57:39.710Z,99731.05
2018-04-07T02:00:12.714Z,99729.24
2018-04-07T02:02:41.083Z,99721.27
2018-04-07T02:05:12.062Z,99724.17
2018-04-07T02:07:40.437Z,99727.63
2018-04-07T02:10:11.142Z,99726.55
2018-04-07T02:12:39.511Z,99724.77
2018-04-07T02:15:11.671Z,99719.97
2018-04-07T02:17:40.059Z,99724.91
2018-04-07T02:20:12.465Z,99721.45
2018-04-07T02:22:40.875Z,99725.91
2018-04-07T02:25:12.166Z,99721.72
2018-04-07T02:27:40.526Z,99725.78
2018-04-07T02:30:11.406Z,99732.89
2018-04-07T02:32:39.778Z,99731.73
2018-04-07T02:35:11.271Z,99723.97
2018-04-07T02:37:39.661Z,99724.41
2018-04-07T02:40:11.994Z,99718.27
2018-04-07T02:42:40.372Z,99717.38
2018-04-07T02:45:10.575Z,99555.76
2018-04-07T02:47:39.091Z,99728.72
2018-04-07T02:50:11.047Z,99721.92
2018-04-07T02:52:39.452Z,99730.27
2018-04-07T02:55:10.852Z,99728.95
2018-04-07T02:57:39.238Z,99727.75
2018-04-07T03:00:11.720Z,99720.26
2018-04-07T03:02:40.084Z,99722.35
2018-04-07T03:05:09.941Z,99632.99
2018-04-07T03:07:39.234Z,99710.48
2018-04-07T03:10:11.295Z,99715.33
2018-04-07T03:12:39.673Z,99709.23
2018-04-07T03:15:11.605Z,99640.63
2018-04-07T03:17:40.018Z,99715.55
2018-04-07T03:20:09.395Z,99712.80
2018-04-07T03:22:37.568Z,99714.11
2018-04-07T03:25:10.399Z,99707.25
2018-04-07T03:27:38.771Z,99707.28
2018-04-07T03:30:11.786Z,99705.55
2018-04-07T03:32:40.180Z,99701.09
2018-04-07T03:35:10.128Z,99694.50
2018-04-07T03:37:38.508Z,99700.64
2018-04-07T03:40:09.788Z,99695.87
2018-04-07T03:42:37.955Z,99690.26
2018-04-07T03:45:10.634Z,99634.17
2018-04-07T03:47:39.010Z,99687.25
2018-04-07T03:50:09.870Z,99688.39
2018-04-07T03:52:38.264Z,99685.59
2018-04-07T03:55:11.400Z,99677.61
2018-04-07T03:57:39.787Z,99666.53
2018-04-07T04:00:10.757Z,99601.48
2018-04-07T04:02:39.131Z,99679.45
2018-04-07T04:05:10.801Z,99671.56
2018-04-07T04:07:39.171Z,99689.16
2018-04-07T04:10:11.526Z,99687.72
2018-04-07T04:12:39.924Z,99688.91
2018-04-07T04:15:10.425Z,99691.98
2018-04-07T04:17:38.833Z,99698.90
2018-04-07T04:20:12.758Z,99567.73
2018-04-07T04:22:41.165Z,99689.14
2018-04-07T04:25:11.807Z,99690.88
2018-04-07T04:27:40.198Z,99699.09
2018-04-07T04:30:11.399Z,99674.09
2018-04-07T04:32:39.804Z,99699.17
2018-04-07T04:35:10.252Z,99578.99
2018-04-07T04:37:38.634Z,99697.52
2018-04-07T04:40:11.622Z,99690.95
2018-04-07T04:42:39.999Z,99691.27
2018-04-07T04:45:14.853Z,99691.50
2018-04-07T04:47:43.254Z,99687.52
2018-04-07T04:50:11.672Z,99685.09
2018-04-07T04:52:40.054Z,99637.94
2018-04-07T04:55:10.926Z,99674.01
2018-04-07T04:57:39.307Z,99677.38
2018-04-07T05:00:11.930Z,99518.33
2018-04-07T05:02:40.302Z,99672.28
2018-04-07T05:05:09.543Z,99666.91
2018-04-07T05:07:37.927Z,99662.41
2018-04-07T05:10:08.685Z,99667.00
2018-04-07T05:12:37.041Z,99671.68
2018-04-07T05:15:07.184Z,99670.27
2018-04-07T05:17:35.581Z,99674.91
2018-04-07T05:20:04.239Z,99671.80
2018-04-07T05:22:36.040Z,99671.67
2018-04-07T05:25:08.609Z,99671.09
2018-04-07T05:27:36.972Z,99669.62
2018-04-07T05:30:05.757Z,99672.79
2018-04-07T05:32:37.775Z,99677.27
2018-04-07T05:35:10.908Z,99680.58
2018-04-07T05:37:39.322Z,99674.17
2018-04-07T05:40:12.670Z,99689.73
2018-04-07T05:42:41.046Z,99686.37
2018-04-07T05:45:12.826Z,99684.65
2018-04-07T05:47:41.279Z,99689.44
2018-04-07T05:50:10.239Z,99670.95
2018-04-07T05:52:38.614Z,99687.63
2018-04-07T05:55:09.371Z,99641.81
2018-04-07T05:57:37.760Z,99685.67
2018-04-07T06:00:11.641Z,99679.06
2018-04-07T06:02:40.013Z,99685.00
2018-04-07T06:05:11.856Z,99679.58
2018-04-07T06:07:40.212Z,99661.25
2018-04-07T06:10:10.107Z,99665.30
2018-04-07T06:12:38.478Z,99666.31
2018-04-07T06:15:11.803Z,99659.02
2018-04-07T06:17:40.198Z,99659.78
2018-04-07T06:20:10.997Z,99663.13
2018-04-07T06:22:39.362Z,99666.77
2018-04-07T06:25:10.851Z,99662.89
2018-04-07T06:27:39.409Z,99666.36
2018-04-07T06:30:09.830Z,99661.19
2018-04-07T06:32:38.198Z,99658.83
2018-04-07T06:35:09.223Z,99650.23
2018-04-07T06:37:37.622Z,99657.63
2018-04-07T06:40:10.954Z,99653.92
2018-04-07T06:42:39.339Z,99638.30
2018-04-07T06:45:10.527Z,99661.59
2018-04-07T06:47:38.914Z,99655.63
2018-04-07T06:50:10.601Z,99663.18
2018-04-07T06:52:38.961Z,99669.97
2018-04-07T06:55:12.702Z,99671.95
2018-04-07T06:57:41.089Z,99674.39
2018-04-07T07:00:12.827Z,99668.66
2018-04-07T07:02:41.200Z,99664.76
2018-04-07T07:05:12.034Z,99591.75
2018-04-07T07:07:40.410Z,99668.00
2018-04-07T07:10:09.040Z,99595.36
2018-04-07T07:12:37.402Z,99672.14
2018-04-07T07:15:07.460Z,99679.11
2018-04-07T07:17:35.840Z,99675.46
2018-04-07T07:20:08.226Z,99677.09
2018-04-07T07:22:36.614Z,99678.94
2018-04-07T07:25:04.515Z,99666.86
2018-04-07T07:27:33.923Z,99666.79
2018-04-07T07:30:02.316Z,99674.55
2018-04-07T07:32:30.743Z,99669.23
2018-04-07T07:34:59.127Z,99671.94
2018-04-07T07:37:27.516Z,99672.06
2018-04-07T07:39:55.974Z,99664.41
2018-04-07T07:42:24.124Z,99672.14
2018-04-07T07:44:52.604Z,99669.33
2018-04-07T07:47:21.029Z,99668.63
2018-04-07T07:49:49.582Z,99668.17
2018-04-07T07:52:17.977Z,99661.84
2018-04-07T07:54:46.365Z,99666.05
2018-04-07T07:57:14.760Z,99660.88
2018-04-07T07:59:43.135Z,99661.16
2018-04-07T08:02:11.515Z,99652.50
2018-04-07T08:04:39.666Z,99663.59
2018-04-07T08:07:08.077Z,99660.30
2018-04-07T08:09:36.464Z,99665.87
2018-04-07T08:12:04.842Z,99665.91
2018-04-07T08:14:33.234Z,99654.02
2018-04-07T08:17:01.620Z,99656.68
2018-04-07T08:19:29.994Z,99658.59
2018-04-07T08:21:58.383Z,99654.75
2018-04-07T08:24:26.755Z,99659.67
2018-04-07T08:26:55.126Z,99652.91
2018-04-07T08:29:23.506Z,99649.22
2018-04-07T08:31:51.898Z,99642.81
2018-04-07T08:34:20.046Z,99642.37
2018-04-07T08:36:48.436Z,99645.30
2018-04-07T08:39:16.864Z,99639.85
2018-04-07T08:41:45.391Z,99640.66
2018-04-07T08:44:13.802Z,99633.20
2018-04-07T08:46:42.195Z,99636.25
2018-04-07T08:49:10.582Z,99641.45
2018-04-07T08:51:38.979Z,99631.89
2018-04-07T08:54:07.368Z,99638.43
2018-04-07T08:56:35.769Z,99633.35
2018-04-07T08:59:04.206Z,99635.88
2018-04-07T09:01:32.579Z,99628.83
2018-04-07T09:04:01.011Z,99629.98
2018-04-07T09:06:29.201Z,99633.79
2018-04-07T09:08:57.583Z,99636.80
2018-04-07T09:11:25.972Z,99648.74
2018-04-07T09:13:54.381Z,99643.91
2018-04-07T09:16:22.846Z,99636.83
2018-04-07T09:18:52.221Z,99635.51
2018-04-07T09:21:20.615Z,99636.77
2018-04-07T09:23:49.027Z,99631.82
2018-04-07T09:26:17.419Z,99628.88
2018-04-07T09:28:45.813Z,99628.12
2018-04-07T09:31:19.659Z,99621.17
2018-04-07T09:33:47.834Z,99625.65
2018-04-07T09:36:16.211Z,99618.20
2018-04-07T09:38:44.750Z,99608.39
2018-04-07T09:41:13.189Z,99598.83
2018-04-07T09:43:41.345Z,99611.72
2018-04-07T09:46:09.499Z,99603.83
2018-04-07T09:48:37.879Z,99606.45
2018-04-07T09:51:06.256Z,99612.66
2018-04-07T09:53:34.630Z,99612.75
2018-04-07T09:56:03.032Z,99607.06
2018-04-07T09:58:31.405Z,99589.81
2018-04-07T10:01:01.373Z,99598.59
2018-04-07T10:03:29.752Z,99604.95
2018-04-07T10:05:58.141Z,99605.04
2018-04-07T10:08:26.525Z,99585.97
2018-04-07T10:10:54.697Z,99590.80
2018-04-07T10:13:23.086Z,99585.75
2018-04-07T10:15:51.475Z,99591.98
2018-04-07T10:18:19.857Z,99578.98
2018-04-07T10:20:48.774Z,99587.39
2018-04-07T10:23:17.186Z,99580.49
2018-04-07T10:25:45.327Z,99577.56
2018-04-07T10:28:13.705Z,99578.06
2018-04-07T10:30:42.295Z,99572.76
2018-04-07T10:33:10.702Z,99561.58
2018-04-07T10:35:39.106Z,99573.16
2018-04-07T10:38:07.474Z,99563.23
2018-04-07T10:40:35.844Z,99560.67
2018-04-07T10:43:04.237Z,99561.27
2018-04-07T10:45:32.622Z,99559.27
2018-04-07T10:48:00.986Z,99545.32
2018-04-07T10:50:29.378Z,99552.59
2018-04-07T10:52:58.620Z,99554.47
2018-04-07T10:55:27.027Z,99551.58
2018-04-07T10:57:55.396Z,99558.38
2018-04-07T11:00:23.550Z,99546.69
2018-04-07T11:02:51.920Z,99546.69
2018-04-07T11:05:20.312Z,99545.20
2018-04-07T11:07:48.713Z,99547.62
2018-04-07T11:10:17.106Z,99540.84
2018-04-07T11:12:45.480Z,99519.29
2018-04-07T11:15:13.863Z,99525.08
2018-04-07T11:17:42.237Z,99537.34
2018-04-07T11:20:17.200Z,99529.22
2018-04-07T11:22:45.602Z,99537.05
2018-04-07T11:25:14.518Z,99531.09
2018-04-07T11:27:42.897Z,99533.80
2018-04-07T11:30:11.298Z,99530.32
2018-04-07T11:32:39.669Z,99527.53
2018-04-07T11:35:15.675Z,99524.31
2018-04-07T11:37:44.051Z,99521.90
2018-04-07T11:40:12.473Z,99478.38
2018-04-07T11:42:40.851Z,99520.20
2018-04-07T11:45:14.878Z,99517.05
2018-04-07T11:47:43.271Z,99506.02
2018-04-07T11:50:11.671Z,99513.92
2018-04-07T11:52:40.053Z,99520.41
2018-04-07T11:55:10.731Z,99465.26
2018-04-07T11:57:39.138Z,99517.46
2018-04-07T12:00:10.050Z,99518.34
2018-04-07T12:02:39.099Z,99523.16
2018-04-07T12:05:12.180Z,99520.34
2018-04-07T12:07:40.565Z,99514.96
2018-04-07T12:10:09.931Z,99505.69
2018-04-07T12:12:38.316Z,99508.30
2018-04-07T12:15:12.927Z,99489.38
2018-04-07T12:17:41.317Z,99502.92
2018-04-07T12:20:09.725Z,99348.22
2018-04-07T12:22:38.127Z,99496.17
2018-04-07T12:25:06.750Z,99493.03
2018-04-07T12:27:35.127Z,99494.81
2018-04-07T12:30:03.620Z,99496.98
2018-04-07T12:32:32.030Z,99500.17
2018-04-07T12:35:00.414Z,99497.59
2018-04-07T12:37:28.803Z,99486.02
2018-04-07T12:39:57.191Z,99489.81
2018-04-07T12:42:25.724Z,99484.75
2018-04-07T12:44:54.097Z,99482.39
2018-04-07T12:47:22.499Z,99482.61
2018-04-07T12:49:50.882Z,99490.65
2018-04-07T12:52:19.314Z,99483.47
2018-04-07T12:54:48.635Z,99475.59
2018-04-07T12:57:17.495Z,99481.26
2018-04-07T12:59:45.915Z,99479.59
2018-04-07T13:02:14.319Z,99476.55
2018-04-07T13:04:42.945Z,99476.19
2018-04-07T13:07:11.321Z,99464.82
2018-04-07T13:09:39.710Z,99463.39
2018-04-07T13:12:08.135Z,99468.53
2018-04-07T13:14:36.531Z,99464.77
2018-04-07T13:17:04.677Z,99454.23
2018-04-07T13:19:32.862Z,99460.49
2018-04-07T13:22:01.110Z,99462.70
2018-04-07T13:24:29.530Z,99455.98
2018-04-07T13:26:57.919Z,99466.69
2018-04-07T13:29:26.328Z,99462.01
2018-04-07T13:31:54.727Z,99454.65
2018-04-07T13:34:23.105Z,99457.73
2018-04-07T13:36:52.587Z,99462.23
2018-04-07T13:39:21.012Z,99427.57
2018-04-07T13:41:49.419Z,99459.60
2018-04-07T13:44:17.822Z,99455.70
2018-04-07T13:46:46.200Z,99451.80
2018-04-07T13:49:14.933Z,99448.92
2018-04-07T13:51:43.420Z,99452.33
2018-04-07T13:54:11.838Z,99450.83
2018-04-07T13:56:40.279Z,99448.97
2018-04-07T13:59:08.688Z,99449.30
2018-04-07T14:01:37.101Z,99447.69
2018-04-07T14:04:05.559Z,99445.52
2018-04-07T14:06:37.177Z,99442.94
2018-04-07T14:09:06.118Z,99442.14
2018-04-07T14:11:34.674Z,99444.06
2018-04-07T14:14:03.137Z,99431.93
2018-04-07T14:16:31.570Z,99432.53
2018-04-07T14:19:00.014Z,99434.25
2018-04-07T14:21:28.445Z,99441.17
2018-04-07T14:23:56.844Z,99449.77
2018-04-07T14:26:25.260Z,99444.58
2018-04-07T14:28:53.638Z,99439.17
2018-04-07T14:31:22.057Z,99434.02
2018-04-07T14:33:50.459Z,99371.70
2018-04-07T14:36:19.059Z,99407.98
2018-04-07T14:38:47.476Z,99429.70
2018-04-07T14:41:16.787Z,99433.38
2018-04-07T14:43:45.195Z,99434.81
2018-04-07T14:46:13.598Z,99436.94
2018-04-07T14:48:42.560Z,99440.30
2018-04-07T14:51:10.971Z,99442.00
2018-04-07T14:53:39.355Z,99426.22
2018-04-07T14:56:07.755Z,99451.77
2018-04-07T14:58:36.128Z,99453.19
2018-04-07T15:01:04.568Z,99456.58
2018-04-07T15:03:32.957Z,99451.70
2018-04-07T15:06:01.360Z,99451.95
2018-04-07T15:08:30.842Z,99454.47
2018-04-07T15:10:59.219Z,99437.68
2018-04-07T15:13:27.665Z,99450.89
2018-04-07T15:15:56.205Z,99454.95
2018-04-07T15:18:24.632Z,99449.38
2018-04-07T15:20:53.099Z,99452.55
2018-04-07T15:23:21.548Z,99450.20
2018-04-07T15:25:49.936Z,99451.53
2018-04-07T15:28:18.368Z,99462.66
2018-04-07T15:30:46.767Z,99460.81
2018-04-07T15:33:16.740Z,99463.67
2018-04-07T15:35:45.287Z,99463.58
2018-04-07T15:38:13.450Z,99475.28
2018-04-07T15:40:41.859Z,99470.50
2018-04-07T15:43:10.294Z,99471.72
2018-04-07T15:45:38.835Z,99475.46
2018-04-07T15:48:07.240Z,99469.50
2018-04-07T15:50:35.624Z,99476.17
2018-04-07T15:53:04.049Z,99478.02
2018-04-07T15:55:32.471Z,99472.56
2018-04-07T15:58:00.859Z,99469.74
2018-04-07T16:00:28.974Z,99478.36
2018-04-07T16:02:57.463Z,99470.97
2018-04-07T16:05:25.682Z,99476.52
2018-04-07T16:07:53.868Z,99467.27
2018-04-07T16:10:22.023Z,99461.70
2018-04-07T16:12:50.474Z,99473.98
2018-04-07T16:15:18.875Z,99476.58
2018-04-07T16:17:47.271Z,99473.72
2018-04-07T16:20:15.705Z,99477.34
2018-04-07T16:22:44.128Z,99477.80
2018-04-07T16:25:14.357Z,99478.72
2018-04-07T16:27:43.048Z,99475.78
2018-04-07T16:30:11.203Z,99408.02
2018-04-07T16:32:38.776Z,99482.63
2018-04-07T16:35:07.095Z,99472.08
2018-04-07T16:37:35.324Z,99478.46
2018-04-07T16:40:04.003Z,99484.38
2018-04-07T16:42:32.671Z,99477.40
2018-04-07T16:45:01.357Z,99482.05
2018-04-07T16:47:29.755Z,99462.07
2018-04-07T16:49:58.196Z,99471.67
2018-04-07T16:52:26.650Z,99471.26
2018-04-07T16:54:54.942Z,99478.23
2018-04-07T16:57:23.344Z,99474.23
2018-04-07T16:59:51.746Z,99478.25
2018-04-07T17:02:20.211Z,99473.08
2018-04-07T17:04:48.715Z,99474.42
2018-04-07T17:07:17.183Z,99470.77
2018-04-07T17:09:45.575Z,99471.66
2018-04-07T17:12:14.024Z,99467.06
2018-04-07T17:14:42.467Z,99470.03
2018-04-07T17:17:10.849Z,99469.03
2018-04-07T17:19:39.229Z,99471.24
2018-04-07T17:22:07.618Z,99473.63
2018-04-07T17:24:36.016Z,99472.62
2018-04-07T17:27:04.404Z,99470.73
2018-04-07T17:29:32.802Z,99460.24
2018-04-07T17:32:01.244Z,99458.28
2018-04-07T17:34:29.649Z,99483.50
2018-04-07T17:36:58.032Z,99484.39
2018-04-07T17:39:26.414Z,99479.48
2018-04-07T17:41:54.812Z,99478.56
2018-04-07T17:44:23.215Z,99481.99
2018-04-07T17:46:51.943Z,99482.17
2018-04-07T17:49:20.364Z,99481.52
2018-04-07T17:51:48.795Z,99482.65
2018-04-07T17:54:17.199Z,99488.60
2018-04-07T17:56:45.585Z,99491.88
2018-04-07T17:59:13.995Z,99488.48
2018-04-07T18:01:42.404Z,99495.33
2018-04-07T18:04:10.794Z,99497.37
2018-04-07T18:06:39.532Z,99497.87
2018-04-07T18:09:07.769Z,99494.45
2018-04-07T18:11:36.157Z,99499.09
2018-04-07T18:14:04.774Z,99497.18
2018-04-07T18:16:34.078Z,99506.55
2018-04-07T18:19:02.474Z,99506.83
2018-04-07T18:21:30.885Z,99506.13
2018-04-07T18:23:59.290Z,99510.12
2018-04-07T18:26:27.693Z,99518.26
2018-04-07T18:28:56.385Z,99519.69
2018-04-07T18:31:24.823Z,99516.40
2018-04-07T18:33:53.215Z,99518.23
2018-04-07T18:36:21.648Z,99519.07
2018-04-07T18:38:50.064Z,99527.42
2018-04-07T18:41:18.541Z,99535.12
2018-04-07T18:43:47.094Z,99535.45
2018-04-07T18:46:15.519Z,99417.41
2018-04-07T18:48:43.914Z,99536.45
2018-04-07T18:51:12.339Z,99547.66
2018-04-07T18:53:40.506Z,99543.48
2018-04-07T18:56:08.677Z,99544.91
2018-04-07T18:58:36.826Z,99547.45
2018-04-07T19:01:04.971Z,99548.86
2018-04-07T19:03:33.414Z,99543.16
2018-04-07T19:06:01.815Z,99538.92
2018-04-07T19:08:30.016Z,99526.07
2018-04-07T19:10:58.196Z,99534.14
2018-04-07T19:13:26.605Z,99536.56
2018-04-07T19:15:54.994Z,99539.64
2018-04-07T19:18:23.371Z,99535.69
2018-04-07T19:20:51.542Z,99531.94
2018-04-07T19:23:19.918Z,99527.89
2018-04-07T19:25:48.349Z,99532.55
2018-04-07T19:28:16.509Z,99529.36
2018-04-07T19:30:44.718Z,99534.02
2018-04-07T19:33:13.268Z,99531.98
2018-04-07T19:35:41.430Z,99529.13
2018-04-07T19:38:09.588Z,99531.09
2018-04-07T19:40:37.997Z,99534.22
2018-04-07T19:43:06.158Z,99533.37
2018-04-07T19:45:34.612Z,99524.50
2018-04-07T19:48:03.019Z,99524.98
2018-04-07T19:50:31.612Z,99530.06
2018-04-07T19:52:59.983Z,99521.19
2018-04-07T19:55:28.367Z,99522.38
2018-04-07T19:57:56.773Z,99520.13
2018-04-07T20:00:25.186Z,99519.89
2018-04-07T20:02:53.571Z,99510.67
2018-04-07T20:05:21.966Z,99512.03
2018-04-07T20:07:50.366Z,99512.95
2018-04-07T20:10:18.829Z,99519.73
2018-04-07T20:12:47.252Z,99513.89
2018-04-07T20:15:15.680Z,99524.12
2018-04-07T20:17:44.422Z,99524.91
2018-04-07T20:20:12.833Z,99514.05
2018-04-07T20:22:41.243Z,99510.93
2018-04-07T20:25:10.196Z,99436.30
2018-04-07T20:27:39.558Z,99505.61
2018-04-07T20:30:08.007Z,99514.47
2018-04-07T20:32:36.430Z,99499.47
2018-04-07T20:35:07.122Z,99503.56
2018-04-07T20:37:35.495Z,99508.53
2018-04-07T20:40:04.183Z,99517.84
2018-04-07T20:42:33.390Z,99475.55
2018-04-07T20:45:01.853Z,99451.05
2018-04-07T20:47:30.445Z,99495.23
2018-04-07T20:49:59.587Z,99495.77
2018-04-07T20:52:27.978Z,99496.05
2018-04-07T20:54:56.726Z,99494.73
2018-04-07T20:57:25.200Z,99489.66
2018-04-07T20:59:53.609Z,99485.86
2018-04-07T21:02:22.026Z,99481.00
2018-04-07T21:04:50.416Z,99488.59
2018-04-07T21:07:18.807Z,99476.84
2018-04-07T21:09:47.251Z,99483.58
2018-04-07T21:12:15.634Z,99482.20
2018-04-07T21:14:44.098Z,99486.25
2018-04-07T21:17:12.538Z,99490.20
2018-04-07T21:19:40.988Z,99485.12
2018-04-07T21:22:09.383Z,99481.70
2018-04-07T21:24:37.779Z,99482.02
2018-04-07T21:27:06.161Z,99477.33
2018-04-07T21:29:34.560Z,99479.52
2018-04-07T21:32:02.883Z,99475.97
2018-04-07T21:34:31.262Z,99470.06
2018-04-07T21:36:59.627Z,99478.78
2018-04-07T21:39:28.004Z,99477.95
2018-04-07T21:41:56.490Z,99473.06
2018-04-07T21:44:24.871Z,99461.20
2018-04-07T21:46:53.252Z,99458.72
2018-04-07T21:49:21.648Z,99453.38
2018-04-07T21:51:50.049Z,99456.98
2018-04-07T21:54:18.423Z,99414.97
2018-04-07T21:56:46.789Z,99453.73
2018-04-07T21:59:15.193Z,99461.28
2018-04-07T22:01:43.585Z,99452.66
2018-04-07T22:04:12.144Z,99454.89
2018-04-07T22:06:40.542Z,99451.08
2018-04-07T22:09:09.429Z,99445.44
2018-04-07T22:11:37.578Z,99448.88
2018-04-07T22:14:05.984Z,99440.27
2018-04-07T22:16:34.386Z,99439.44
2018-04-07T22:19:02.551Z,99436.94
2018-04-07T22:21:30.701Z,99433.88
2018-04-07T22:23:59.136Z,99434.27
2018-04-07T22:26:27.298Z,99433.96
2018-04-07T22:28:55.674Z,99428.27
2018-04-07T22:31:23.858Z,99429.02
2018-04-07T22:33:52.034Z,99436.55
2018-04-07T22:36:20.424Z,99421.84
2018-04-07T22:38:48.618Z,99433.70
2018-04-07T22:41:16.987Z,99425.21
2018-04-07T22:43:45.443Z,99423.06
2018-04-07T22:46:13.831Z,99415.23
2018-04-07T22:48:42.227Z,99419.70
2018-04-07T22:51:10.624Z,99417.16
2018-04-07T22:53:39.003Z,99420.70
2018-04-07T22:56:07.387Z,99418.95
2018-04-07T22:58:37.407Z,99401.89
2018-04-07T23:01:05.800Z,99414.32
2018-04-07T23:03:34.180Z,99376.86
2018-04-07T23:06:02.578Z,99412.48
2018-04-07T23:08:31.014Z,99411.73
2018-04-07T23:10:59.505Z,99415.72
2018-04-07T23:13:27.896Z,99412.73
2018-04-07T23:15:56.265Z,99422.76
2018-04-07T23:18:24.675Z,99421.14
2018-04-07T23:20:53.079Z,99407.27
2018-04-07T23:23:21.468Z,99407.19
2018-04-07T23:25:49.851Z,99404.52
2018-04-07T23:28:18.235Z,99357.00
2018-04-07T23:30:46.609Z,99402.84
2018-04-07T23:33:14.781Z,99401.58
2018-04-07T23:35:43.230Z,99391.56
2018-04-07T23:38:12.466Z,99388.02
2018-04-07T23:40:40.843Z,99385.36
2018-04-07T23:43:09.258Z,99380.89
2018-04-07T23:45:37.642Z,99406.79
2018-04-07T23:48:06.053Z,99380.89
2018-04-07T23:50:34.446Z,99372.92
2018-04-07T23:53:02.844Z,99356.48
2018-04-07T23:55:31.229Z,99368.77
2018-04-07T23:57:59.625Z,99367.77
